Time;durP1;ratioP1;P1;durP2;ratioP2;P2;SDS_P1;SDS_P2;PMS_P1;PMS_P2;Temp;Humidity;BMP_temperature;BMP_pressure;BME280_temperature;BME280_humidity;BME280_pressure;Samples;Min_cycle;Max_cycle;Signal;HPM_P1;HPM_P2
2022/10/25 00:00:38;;;;;;;20.67;7.38;;;;;;;9.13;64.24;93935.69;5052517;28;20033;-35
2022/10/25 00:03:07;;;;;;;13.47;6.97;;;;;;;8.79;64.93;93935.50;5034657;28;20382;-36
2022/10/25 00:05:33;;;;;;;20.13;7.90;;;;;;;8.85;65.01;93933.41;5052302;28;20116;-35
2022/10/25 00:07:58;;;;;;;13.10;7.82;;;;;;;8.78;65.38;93928.50;5052420;28;20104;-35
2022/10/25 00:10:24;;;;;;;15.52;7.28;;;;;;;8.81;65.63;93930.22;5052591;28;20021;-35
2022/10/25 00:12:49;;;;;;;13.50;6.55;;;;;;;8.82;65.08;93922.69;5052387;28;20078;-35
2022/10/25 00:15:15;;;;;;;9.25;6.90;;;;;;;8.81;65.26;93932.22;5052501;28;20035;-36
2022/10/25 00:17:42;;;;;;;13.20;6.75;;;;;;;8.73;65.47;93929.34;5052265;28;20531;-35
2022/10/25 00:20:08;;;;;;;16.90;6.80;;;;;;;8.66;65.19;93935.47;5052130;28;20017;-35
2022/10/25 00:22:33;;;;;;;14.32;6.70;;;;;;;8.80;64.62;93930.72;5052349;28;20021;-35
2022/10/25 00:24:59;;;;;;;15.50;7.85;;;;;;;8.85;64.58;93927.16;5051985;28;20496;-35
2022/10/25 00:27:24;;;;;;;19.33;6.72;;;;;;;8.70;65.42;93929.66;5051989;28;20488;-35
2022/10/25 00:29:51;;;;;;;12.93;7.18;;;;;;;8.78;64.96;93922.25;5066997;28;20020;-35
2022/10/25 00:32:17;;;;;;;12.68;6.05;;;;;;;8.52;65.98;93916.66;5071914;28;20024;-35
2022/10/25 00:34:43;;;;;;;11.00;6.45;;;;;;;8.33;66.21;93900.22;5054038;28;20027;-35
2022/10/25 00:37:08;;;;;;;11.32;6.18;;;;;;;8.43;66.47;93915.06;5071862;28;20028;-35
2022/10/25 00:39:35;;;;;;;15.63;7.53;;;;;;;8.46;66.42;93916.75;5072037;28;20035;-35
2022/10/25 00:42:01;;;;;;;17.60;7.88;;;;;;;8.74;65.46;93913.56;5071988;28;20097;-35
2022/10/25 00:44:35;;;;;;;19.65;7.57;;;;;;;8.74;64.36;93914.31;5071893;28;20412;-35
2022/10/25 00:47:21;;;;;;;21.63;7.30;;;;;;;8.72;64.32;93914.09;5071616;28;20028;-35
2022/10/25 00:50:02;;;;;;;18.73;8.25;;;;;;;8.48;65.30;93911.47;5010335;28;20068;-36
2022/10/25 00:52:31;;;;;;;9.98;6.00;;;;;;;8.50;66.21;93913.69;5051780;28;20035;-35
2022/10/25 00:54:57;;;;;;;10.77;6.35;;;;;;;8.33;67.36;93911.22;5051643;28;20505;-35
2022/10/25 00:57:38;;;;;;;14.10;6.57;;;;;;;8.26;67.85;93907.06;5064921;28;20024;-35
2022/10/25 01:00:05;;;;;;;9.68;6.03;;;;;;;8.19;68.06;93913.13;5053576;28;20480;-35
2022/10/25 01:02:30;;;;;;;13.23;6.63;;;;;;;8.28;67.52;93901.78;5058185;28;20045;-35
2022/10/25 01:04:56;;;;;;;10.82;5.82;;;;;;;8.29;67.79;93905.28;5051070;28;20124;-35
2022/10/25 01:07:21;;;;;;;9.90;5.70;;;;;;;8.40;67.15;93903.06;5051363;28;20029;-35
2022/10/25 01:09:47;;;;;;;18.52;7.38;;;;;;;8.50;65.90;93900.69;5033697;28;20025;-35
2022/10/25 01:12:12;;;;;;;20.65;8.23;;;;;;;8.48;64.87;93902.47;5051444;28;20413;-35
2022/10/25 01:14:41;;;;;;;19.33;8.25;;;;;;;8.45;64.62;93898.75;5051078;28;20110;-35
2022/10/25 01:17:13;;;;;;;18.40;8.38;;;;;;;8.53;63.61;93899.66;5033224;28;20039;-35
2022/10/25 01:19:59;;;;;;;24.73;8.32;;;;;;;8.28;64.72;93901.78;5051385;28;20420;-35
2022/10/25 01:22:39;;;;;;;17.58;7.00;;;;;;;8.17;65.72;93901.91;5051036;28;20670;-35
2022/10/25 01:25:26;;;;;;;12.10;6.93;;;;;;;8.10;66.08;93894.25;5053888;28;20051;-35
2022/10/25 01:28:05;;;;;;;19.52;6.82;;;;;;;8.21;65.63;93890.59;5070820;28;20043;-35
2022/10/25 01:31:08;;;;;;;10.88;5.60;;;;;;;8.03;66.39;93885.88;5033348;28;20417;-35
2022/10/25 01:33:43;;;;;;;14.10;6.53;;;;;;;7.90;66.79;93888.56;5051086;28;20048;-35
2022/10/25 01:36:36;;;;;;;13.27;5.45;;;;;;;7.64;67.13;93881.63;5049896;28;20057;-35
2022/10/25 01:39:21;;;;;;;14.77;6.68;;;;;;;7.71;66.14;93888.53;5051109;28;20102;-35
2022/10/25 01:41:49;;;;;;;13.00;6.43;;;;;;;7.60;66.97;93883.22;5033164;28;20124;-35
2022/10/25 01:44:40;;;;;;;14.48;7.13;;;;;;;7.80;66.58;93888.16;5050961;28;20035;-35
2022/10/25 01:47:17;;;;;;;20.98;7.03;;;;;;;7.59;67.15;93871.47;5069467;28;20048;-35
2022/10/25 01:49:52;;;;;;;21.08;7.13;;;;;;;7.53;67.31;93876.28;5052879;28;20492;-35
2022/10/25 01:52:20;;;;;;;14.15;7.03;;;;;;;7.60;67.27;93886.69;5070551;28;20242;-35
2022/10/25 01:54:45;;;;;;;16.67;7.15;;;;;;;7.84;66.39;93874.16;5070766;28;20063;-35
2022/10/25 01:57:38;;;;;;;16.77;6.10;;;;;;;7.75;66.18;93882.75;5058704;28;20457;-35
2022/10/25 02:00:03;;;;;;;16.50;6.88;;;;;;;7.58;66.43;93874.72;5050769;28;20433;-35
2022/10/25 02:02:53;;;;;;;10.35;6.60;;;;;;;7.51;66.55;93878.78;5050256;28;20167;-35
2022/10/25 02:05:59;;;;;;;18.75;6.90;;;;;;;7.70;65.99;93876.06;5050089;28;20045;-35
2022/10/25 02:08:41;;;;;;;15.77;7.80;;;;;;;7.62;66.17;93866.94;5050379;28;20032;-35
2022/10/25 02:11:28;;;;;;;14.95;7.18;;;;;;;7.81;65.38;93875.94;5050415;28;20492;-35
2022/10/25 02:14:27;;;;;;;16.30;7.50;;;;;;;7.37;67.10;93870.97;5032726;28;20571;-35
2022/10/25 02:16:56;;;;;;;15.88;6.78;;;;;;;7.62;65.74;93862.16;5050533;28;20404;-35
2022/10/25 02:19:39;;;;;;;;;;;;;;;7.53;65.66;93864.56;5033043;28;20036;-35
2022/10/25 02:22:08;;;;;;;13.68;6.55;;;;;;;7.19;66.63;93866.22;5032526;28;19916;-35
2022/10/25 02:24:33;;;;;;;20.08;6.25;;;;;;;6.90;67.40;93862.28;5050059;28;20060;-35
2022/10/25 02:27:01;;;;;;;12.15;6.63;;;;;;;7.11;67.38;93865.28;5050976;28;20063;-35
2022/10/25 02:29:30;;;;;;;14.18;7.13;;;;;;;7.12;67.48;93866.78;5056947;28;20094;-35
2022/10/25 02:31:55;;;;;;;16.05;7.07;;;;;;;7.00;67.65;93866.16;5050317;28;20028;-35
2022/10/25 02:34:21;;;;;;;12.93;6.57;;;;;;;6.90;67.80;93856.78;5050351;28;20516;-35
2022/10/25 02:36:50;;;;;;;12.65;5.75;;;;;;;6.73;68.08;93869.94;5032550;28;20024;-35
2022/10/25 02:39:17;;;;;;;15.18;7.10;;;;;;;6.72;68.57;93874.69;5049882;28;20110;-35
2022/10/25 02:41:42;;;;;;;14.52;5.65;;;;;;;7.00;67.67;93866.16;5021068;28;20024;-35
2022/10/25 02:44:08;;;;;;;11.85;5.85;;;;;;;6.99;67.01;93870.19;5070239;28;20033;-35
2022/10/25 02:46:33;;;;;;;12.63;7.20;;;;;;;6.53;68.71;93871.13;5070148;28;20090;-35
2022/10/25 02:48:58;;;;;;;17.45;6.40;;;;;;;6.91;67.95;93871.28;5068753;28;20020;-35
2022/10/25 02:51:24;;;;;;;13.55;6.82;;;;;;;7.09;67.09;93873.31;5069848;28;20024;-35
2022/10/25 02:53:49;;;;;;;15.77;6.00;;;;;;;6.84;67.99;93873.31;5069850;28;20028;-35
2022/10/25 02:56:18;;;;;;;11.57;5.97;;;;;;;6.80;68.34;93872.84;5065808;28;20017;-35
2022/10/25 02:58:44;;;;;;;9.90;5.43;;;;;;;6.75;68.19;93878.41;5049843;28;20083;-35
2022/10/25 03:01:10;;;;;;;18.23;6.75;;;;;;;6.86;67.76;93875.56;5049697;28;20025;-35
2022/10/25 03:03:36;;;;;;;18.17;7.95;;;;;;;6.89;67.16;93871.75;5049752;28;20119;-35
2022/10/25 03:06:02;;;;;;;32.28;8.95;;;;;;;6.84;67.22;93875.31;5050003;28;20481;-35
2022/10/25 03:08:27;;;;;;;27.77;11.00;;;;;;;6.77;66.97;93853.94;5050012;28;20051;-35
2022/10/25 03:10:53;;;;;;;29.55;8.38;;;;;;;6.95;66.64;93869.72;5032016;28;20314;-35
2022/10/25 03:13:19;;;;;;;17.92;8.02;;;;;;;6.82;66.50;93873.06;5049932;28;20029;-35
2022/10/25 03:15:45;;;;;;;14.85;7.28;;;;;;;6.88;66.43;93876.53;5049606;28;20486;-35
2022/10/25 03:18:11;;;;;;;21.45;7.43;;;;;;;6.69;67.04;93878.44;5049593;28;20025;-35
2022/10/25 03:20:36;;;;;;;16.58;7.70;;;;;;;6.64;67.29;93873.00;5049905;28;20018;-35
2022/10/25 03:23:02;;;;;;;16.30;6.68;;;;;;;6.47;67.91;93869.69;5049653;28;20409;-35
2022/10/25 03:25:27;;;;;;;18.40;7.07;;;;;;;6.38;68.12;93870.00;5052124;28;20043;-35
2022/10/25 03:27:53;;;;;;;11.73;5.18;;;;;;;6.46;67.72;93866.19;5053212;28;20036;-35
2022/10/25 03:30:19;;;;;;;16.60;9.02;;;;;;;6.39;68.21;93866.00;5072043;28;20404;-35
2022/10/25 03:32:44;;;;;;;20.75;10.13;;;;;;;6.63;67.36;93866.03;5073473;28;20023;-35
2022/10/25 03:35:10;;;;;;;14.85;8.55;;;;;;;6.50;66.64;93866.66;5072955;28;20108;-35
2022/10/25 03:37:35;;;;;;;25.70;10.13;;;;;;;6.54;66.84;93864.38;5070573;28;20024;-35
2022/10/25 03:40:00;;;;;;;17.55;7.88;;;;;;;6.53;66.90;93864.88;5052991;28;20047;-35
2022/10/25 03:42:26;;;;;;;16.45;7.50;;;;;;;6.36;67.65;93864.28;5052884;28;20020;-35
2022/10/25 03:44:52;;;;;;;15.55;8.23;;;;;;;6.20;68.10;93871.38;5053113;28;20025;-35
2022/10/25 03:47:17;;;;;;;23.58;8.02;;;;;;;6.31;67.79;93867.81;5052750;28;20028;-35
2022/10/25 03:49:43;;;;;;;14.85;6.28;;;;;;;6.19;67.87;93856.19;5052877;28;20036;-35
2022/10/25 03:52:09;;;;;;;13.07;7.70;;;;;;;6.28;68.22;93866.09;5052728;28;20108;-35
2022/10/25 03:54:34;;;;;;;16.73;6.65;;;;;;;6.37;67.67;93871.25;5052942;28;20101;-35
2022/10/25 03:57:01;;;;;;;21.52;7.80;;;;;;;6.29;67.99;93862.84;5062758;28;20399;-35
2022/10/25 03:59:26;;;;;;;16.00;7.25;;;;;;;6.45;67.67;93855.72;5072805;28;20028;-35
2022/10/25 04:01:52;;;;;;;16.02;8.93;;;;;;;6.43;67.37;93852.75;5065064;28;20017;-35
2022/10/25 04:04:17;;;;;;;18.85;10.38;;;;;;;5.88;68.73;93830.00;5052247;28;20060;-35
2022/10/25 04:06:43;;;;;;;20.80;11.10;;;;;;;6.18;68.42;93848.47;5052401;28;20017;-35
2022/10/25 04:09:08;;;;;;;23.00;12.80;;;;;;;6.21;68.34;93839.22;5052662;28;20021;-35
2022/10/25 04:11:34;;;;;;;26.40;12.05;;;;;;;6.43;68.02;93858.25;5052616;28;20374;-35
2022/10/25 04:13:59;;;;;;;32.42;14.18;;;;;;;6.26;68.30;93861.09;5052321;28;20404;-35
2022/10/25 04:16:25;;;;;;;29.27;14.30;;;;;;;6.38;67.47;93859.03;5052285;28;20029;-35
2022/10/25 04:18:56;;;;;;;44.20;22.58;;;;;;;6.28;68.66;93857.88;5052157;28;20021;-35
2022/10/25 04:21:22;;;;;;;48.35;21.17;;;;;;;6.17;68.91;93864.19;5052136;28;20057;-35
2022/10/25 04:23:48;;;;;;;44.42;22.20;;;;;;;6.07;69.79;93866.50;5052377;28;20016;-35
2022/10/25 04:26:16;;;;;;;60.85;27.58;;;;;;;6.15;69.44;93865.97;5064536;28;20028;-35
2022/10/25 04:28:43;;;;;;;67.28;31.00;;;;;;;6.12;69.68;93867.72;5066296;28;20028;-35
2022/10/25 04:31:08;;;;;;;51.90;21.25;;;;;;;6.13;70.17;93864.44;5051930;28;20017;-35
2022/10/25 04:33:34;;;;;;;56.38;22.90;;;;;;;6.11;70.82;93866.97;5052273;28;20028;-35
2022/10/25 04:35:59;;;;;;;48.35;22.48;;;;;;;5.96;71.06;93854.84;5071749;28;20488;-35
2022/10/25 04:38:25;;;;;;;54.25;23.23;;;;;;;5.86;71.19;93829.03;5071889;28;20408;-35
2022/10/25 04:40:55;;;;;;;59.65;25.83;;;;;;;6.17;70.99;93857.97;5071837;28;20024;-35
2022/10/25 04:43:20;;;;;;;67.68;28.65;;;;;;;6.17;69.99;93858.72;5071990;28;20444;-35
2022/10/25 04:45:46;;;;;;;41.97;19.67;;;;;;;6.05;70.11;93832.63;5071877;28;20028;-35
2022/10/25 04:48:11;;;;;;;43.63;18.55;;;;;;;6.18;68.99;93862.19;5071635;28;20408;-35
2022/10/25 04:50:37;;;;;;;33.15;16.90;;;;;;;6.17;69.06;93868.94;5071881;28;20420;-35
2022/10/25 04:53:03;;;;;;;39.05;17.23;;;;;;;6.05;69.07;93863.53;5071597;28;20385;-35
2022/10/25 04:55:30;;;;;;;39.40;17.67;;;;;;;5.96;69.62;93854.84;5071493;28;20020;-35
2022/10/25 04:57:55;;;;;;;35.38;18.23;;;;;;;6.05;69.42;93857.28;5053582;28;20059;-35
2022/10/25 05:00:21;;;;;;;41.22;17.10;;;;;;;5.95;69.78;93858.88;5051652;28;20067;-35
2022/10/25 05:02:46;;;;;;;45.58;17.98;;;;;;;5.90;70.17;93857.66;5051331;28;20397;-35
2022/10/25 05:05:12;;;;;;;35.35;18.60;;;;;;;5.93;69.89;93866.84;5051130;28;20052;-35
2022/10/25 05:07:37;;;;;;;51.78;21.75;;;;;;;5.99;69.63;93867.56;5051335;28;20108;-35
2022/10/25 05:10:03;;;;;;;45.88;21.52;;;;;;;6.07;69.23;93858.28;5051264;28;20031;-35
2022/10/25 05:12:28;;;;;;;41.55;20.33;;;;;;;5.70;70.09;93854.50;5051119;28;20029;-35
2022/10/25 05:14:54;;;;;;;48.47;22.55;;;;;;;5.97;69.77;93870.06;5051496;28;20013;-35
2022/10/25 05:17:19;;;;;;;46.50;19.77;;;;;;;5.76;70.10;93861.44;5051103;28;20047;-35
2022/10/25 05:19:45;;;;;;;42.65;18.98;;;;;;;5.93;69.83;93873.06;5051136;28;20032;-35
2022/10/25 05:22:10;;;;;;;66.53;29.50;;;;;;;5.93;69.99;93877.81;5051306;28;20029;-36
2022/10/25 05:24:36;;;;;;;75.05;37.60;;;;;;;5.98;70.03;93880.50;5050889;28;20497;-35
2022/10/25 05:27:03;;;;;;;75.93;34.92;;;;;;;6.06;69.89;93883.47;5050689;28;20028;-36
2022/10/25 05:29:28;;;;;;;79.88;32.67;;;;;;;6.06;70.13;93886.19;5063085;28;20032;-35
2022/10/25 05:31:54;;;;;;;73.82;36.70;;;;;;;6.03;70.44;93882.47;5053473;28;20025;-35
2022/10/25 05:34:19;;;;;;;72.88;35.97;;;;;;;5.97;70.53;93897.47;5051058;28;20515;-35
2022/10/25 05:36:45;;;;;;;83.72;42.58;;;;;;;5.98;70.61;93885.25;5051083;28;20028;-35
2022/10/25 05:39:10;;;;;;;123.60;51.67;;;;;;;6.04;70.41;93894.91;5050764;28;20118;-35
2022/10/25 05:41:36;;;;;;;94.38;43.33;;;;;;;5.99;70.67;93890.22;5050681;28;20024;-35
2022/10/25 05:44:01;;;;;;;145.35;65.07;;;;;;;5.99;70.61;93884.00;5050650;28;20023;-35
2022/10/25 05:46:27;;;;;;;120.32;54.60;;;;;;;6.29;70.27;93895.00;5050195;28;20053;-35
2022/10/25 05:48:52;;;;;;;132.38;48.95;;;;;;;6.42;70.15;93900.63;5032735;28;20424;-35
2022/10/25 05:51:22;;;;;;;115.03;36.13;;;;;;;6.62;70.07;93900.22;5050524;28;20032;-35
2022/10/25 05:53:48;;;;;;;;;;;;;;;6.65;70.22;93907.41;5051302;28;20029;-35
2022/10/25 05:56:14;;;;;;;96.60;33.63;;;;;;;6.77;70.17;93906.06;5054512;28;20046;-35
2022/10/25 05:58:40;;;;;;;111.63;42.00;;;;;;;6.95;69.85;93912.91;5070394;28;20021;-35
2022/10/25 06:01:07;;;;;;;129.38;34.50;;;;;;;7.01;69.91;93914.31;5069328;28;20052;-35
2022/10/25 06:03:33;;;;;;;58.15;23.05;;;;;;;7.18;70.09;93911.41;5050164;28;20049;-35
2022/10/25 06:06:06;;;;;;;53.67;18.98;;;;;;;7.29;69.96;93919.53;5050518;28;20028;-35
2022/10/25 06:08:34;;;;;;;31.95;16.08;;;;;;;7.48;69.87;93904.56;5050600;28;20059;-35
2022/10/25 06:11:04;;;;;;;91.40;32.47;;;;;;;7.75;70.00;93907.50;5050492;28;20055;-35
2022/10/25 06:13:30;;;;;;;61.13;27.20;;;;;;;7.96;69.40;93905.72;5050481;28;20112;-35
2022/10/25 06:15:55;;;;;;;70.68;23.98;;;;;;;8.10;69.17;93910.03;5050171;28;20599;-35
2022/10/25 06:18:21;;;;;;;49.28;21.38;;;;;;;8.28;68.44;93912.03;5050120;28;20040;-35
2022/10/25 06:20:46;;;;;;;41.67;19.05;;;;;;;8.40;68.54;93913.38;5050150;28;20021;-35
2022/10/25 06:23:12;;;;;;;44.85;18.52;;;;;;;8.63;68.15;93914.50;5050198;28;20025;-35
2022/10/25 06:25:37;;;;;;;37.95;14.93;;;;;;;8.97;67.47;93909.91;5057448;28;20021;-35
2022/10/25 06:28:03;;;;;;;38.13;18.60;;;;;;;9.31;66.55;93907.31;5053457;28;20443;-35
2022/10/25 06:30:31;;;;;;;35.72;18.52;;;;;;;9.79;65.11;93906.84;5050263;28;20090;-35
2022/10/25 06:32:56;;;;;;;95.28;19.42;;;;;;;10.48;62.71;93922.22;5032180;28;20029;-35
2022/10/25 06:35:22;;;;;;;49.92;20.92;;;;;;;10.93;60.66;93919.88;5050276;28;20515;-36
2022/10/25 06:37:47;;;;;;;45.00;21.13;;;;;;;11.15;59.70;93918.56;5049945;28;20056;-36
2022/10/25 06:40:13;;;;;;;40.67;20.42;;;;;;;11.51;59.37;93918.63;5049958;28;20031;-36
2022/10/25 06:42:38;;;;;;;39.72;21.20;;;;;;;12.11;58.23;93911.41;5050211;28;20021;-36
2022/10/25 06:45:04;;;;;;;58.95;21.35;;;;;;;13.09;55.87;93916.47;5049894;28;20040;-36
2022/10/25 06:47:30;;;;;;;44.40;20.45;;;;;;;14.25;53.51;93909.56;5050119;28;20474;-36
2022/10/25 06:49:55;;;;;;;39.90;21.05;;;;;;;15.71;49.79;93915.13;5032132;28;20036;-36
2022/10/25 06:52:20;;;;;;;41.00;24.08;;;;;;;16.90;46.48;93905.19;5050120;28;20029;-36
2022/10/25 06:54:46;;;;;;;35.53;22.58;;;;;;;17.55;44.29;93910.16;5049822;28;20507;-36
2022/10/25 06:57:11;;;;;;;38.22;23.58;;;;;;;18.12;43.03;93910.28;5049962;28;20056;-36
2022/10/25 06:59:37;;;;;;;43.80;24.75;;;;;;;18.40;42.51;93906.75;5053529;28;20425;-36
2022/10/25 07:02:02;;;;;;;48.20;24.95;;;;;;;19.16;41.42;93899.53;5063071;28;20091;-36
2022/10/25 07:04:31;;;;;;;33.75;22.92;;;;;;;19.81;40.75;93899.84;5073502;28;20566;-36
2022/10/25 07:06:57;;;;;;;29.48;16.38;;;;;;;20.77;39.29;93905.47;5073511;28;20041;-36
2022/10/25 07:09:24;;;;;;;28.83;13.30;;;;;;;21.22;39.24;93897.06;5073474;28;20037;-37
2022/10/25 07:11:49;;;;;;;16.35;10.60;;;;;;;21.62;38.81;93902.31;5073446;28;20519;-36
2022/10/25 07:14:15;;;;;;;21.77;11.45;;;;;;;22.60;37.21;93894.13;5073492;28;20056;-34
2022/10/25 07:16:41;;;;;;;20.30;12.68;;;;;;;23.07;36.12;93893.88;5073289;28;20046;-35
2022/10/25 07:19:06;;;;;;;25.20;13.98;;;;;;;23.55;35.21;93898.59;5073732;28;20024;-35
2022/10/25 07:21:32;;;;;;;17.90;11.25;;;;;;;23.98;35.08;93893.81;5073233;28;20016;-34
2022/10/25 07:23:57;;;;;;;39.05;18.60;;;;;;;24.41;33.31;93897.47;5059430;28;20033;-35
2022/10/25 07:26:28;;;;;;;28.27;17.13;;;;;;;24.59;33.21;93901.19;5066930;28;20021;-35
2022/10/25 07:28:55;;;;;;;32.90;18.15;;;;;;;24.66;33.28;93893.75;5065805;28;20064;-35
2022/10/25 07:31:26;;;;;;;19.17;11.20;;;;;;;24.31;33.86;93884.94;5053198;28;20100;-35
2022/10/25 07:33:53;;;;;;;26.85;12.18;;;;;;;24.26;34.78;93894.56;5053513;28;20063;-35
2022/10/25 07:36:19;;;;;;;22.15;11.70;;;;;;;24.17;35.32;93881.41;5053176;28;20040;-34
2022/10/25 07:38:45;;;;;;;22.70;11.70;;;;;;;24.10;35.87;93883.91;5053174;28;20485;-35
2022/10/25 07:41:10;;;;;;;19.77;9.35;;;;;;;24.55;34.94;93883.31;5053228;28;20041;-35
2022/10/25 07:43:36;;;;;;;25.13;11.30;;;;;;;25.17;34.08;93889.16;5053296;28;20427;-35
2022/10/25 07:46:02;;;;;;;15.00;10.30;;;;;;;25.61;33.71;93873.56;5053055;28;20021;-35
2022/10/25 07:48:27;;;;;;;16.00;9.90;;;;;;;25.96;33.60;93875.81;5053165;28;20553;-35
2022/10/25 07:50:53;;;;;;;17.58;8.90;;;;;;;26.41;32.34;93875.63;5053086;28;20104;-35
2022/10/25 07:53:18;;;;;;;13.82;6.53;;;;;;;26.78;31.58;93882.19;5052718;28;20028;-35
2022/10/25 07:55:53;;;;;;;12.45;7.47;;;;;;;27.29;30.82;93870.72;5035274;28;20035;-35
2022/10/25 07:58:19;;;;;;;18.58;7.95;;;;;;;27.46;30.58;93866.44;5052857;28;20413;-35
2022/10/25 08:00:44;;;;;;;12.27;6.43;;;;;;;28.10;29.91;93866.00;5051603;28;20036;-35
2022/10/25 08:03:11;;;;;;;12.77;5.47;;;;;;;28.62;28.96;93866.38;5070716;28;20393;-35
2022/10/25 08:05:37;;;;;;;14.20;6.13;;;;;;;29.03;29.49;93867.03;5072428;28;20503;-35
2022/10/25 08:08:04;;;;;;;18.45;6.70;;;;;;;29.37;29.04;93861.00;5072518;28;20090;-35
2022/10/25 08:10:30;;;;;;;14.68;5.03;;;;;;;29.45;28.21;93867.66;5071898;28;20101;-35
2022/10/25 08:12:55;;;;;;;11.32;6.30;;;;;;;29.56;27.63;93863.00;5072436;28;20098;-35
2022/10/25 08:15:21;;;;;;;12.15;4.47;;;;;;;30.12;27.08;93872.47;5072311;28;20029;-35
2022/10/25 08:17:46;;;;;;;8.18;4.20;;;;;;;30.71;26.19;93861.97;5072302;28;20031;-35
2022/10/25 08:20:12;;;;;;;19.13;5.18;;;;;;;30.91;25.66;93861.03;5058560;28;20066;-35
2022/10/25 08:22:37;;;;;;;13.02;4.80;;;;;;;31.27;25.92;93850.53;5034451;28;20029;-35
2022/10/25 08:25:04;;;;;;;12.98;5.57;;;;;;;31.48;24.80;93846.00;5054535;28;20031;-35
2022/10/25 08:27:30;;;;;;;9.73;4.47;;;;;;;30.73;25.33;93852.75;5072120;28;20527;-35
2022/10/25 08:29:55;;;;;;;16.02;5.70;;;;;;;31.22;25.13;93846.84;5072375;28;20678;-35
2022/10/25 08:32:21;;;;;;;15.45;4.85;;;;;;;31.36;24.81;93843.59;5072039;28;20029;-35
2022/10/25 08:34:46;;;;;;;7.88;3.95;;;;;;;31.96;23.94;93842.09;5072270;28;20028;-35
2022/10/25 08:37:12;;;;;;;9.90;4.72;;;;;;;32.03;23.88;93840.09;5072166;28;20416;-35
2022/10/25 08:39:37;;;;;;;27.77;5.82;;;;;;;32.05;23.72;93840.13;5072064;28;20503;-35
2022/10/25 08:42:03;;;;;;;12.45;4.32;;;;;;;31.94;23.31;93829.88;5072092;28;20024;-35
2022/10/25 08:44:50;;;;;;;13.77;5.03;;;;;;;31.95;23.31;93825.63;5071725;28;20548;-35
2022/10/25 08:47:19;;;;;;;24.15;4.93;;;;;;;31.63;23.89;93824.94;5071836;28;20109;-35
2022/10/25 08:50:05;;;;;;;16.98;4.32;;;;;;;32.06;23.96;93827.28;5053797;28;20024;-35
2022/10/25 08:52:42;;;;;;;11.10;3.90;;;;;;;32.02;23.00;93830.06;5071466;28;20039;-35
2022/10/25 08:55:31;;;;;;;11.75;4.30;;;;;;;31.84;23.54;93830.38;5054073;28;20036;-35
2022/10/25 08:57:58;;;;;;;10.52;4.60;;;;;;;31.70;23.71;93829.38;5041053;28;20059;-34
2022/10/25 09:00:24;;;;;;;13.55;4.90;;;;;;;31.21;24.05;93822.56;5050591;28;20059;-34
2022/10/25 09:02:55;;;;;;;11.20;4.63;;;;;;;31.18;24.37;93828.91;5033555;28;20491;-34
2022/10/25 09:05:26;;;;;;;12.77;4.30;;;;;;;30.87;24.40;93833.16;5051080;28;20041;-35
2022/10/25 09:08:22;;;;;;;19.33;5.45;;;;;;;31.15;24.44;93830.25;5051434;28;20024;-35
2022/10/25 09:11:17;;;;;;;22.42;4.88;;;;;;;31.56;24.38;93832.63;5040846;28;20043;-35
2022/10/25 09:13:51;;;;;;;15.32;5.05;;;;;;;31.27;24.35;93827.69;5032348;28;20029;-34
2022/10/25 09:16:51;;;;;;;10.00;3.53;;;;;;;31.52;22.83;93826.13;5033270;28;20021;-35
2022/10/25 09:19:24;;;;;;;18.85;5.53;;;;;;;31.20;23.32;93820.41;5051464;28;20104;-35
2022/10/25 09:21:56;;;;;;;22.52;4.47;;;;;;;31.10;23.25;93823.72;5032293;28;20016;-35
2022/10/25 09:24:28;;;;;;;9.52;4.28;;;;;;;31.12;23.47;93823.06;5033161;28;20481;-34
2022/10/25 09:27:13;;;;;;;9.65;4.63;;;;;;;31.33;23.30;93822.13;5068855;28;20028;-34
2022/10/25 09:29:49;;;;;;;7.63;3.63;;;;;;;31.52;22.75;93831.81;5057610;28;20412;-35
2022/10/25 09:32:39;;;;;;;15.10;6.53;;;;;;;31.48;23.24;93829.63;5051227;28;20029;-34
2022/10/25 09:35:13;;;;;;;20.85;12.88;;;;;;;31.12;22.44;93826.63;5033405;28;20078;-35
2022/10/25 09:37:42;;;;;;;42.33;28.50;;;;;;;30.79;23.71;93820.81;5033326;28;20087;-34
2022/10/25 09:40:22;;;;;;;34.72;21.75;;;;;;;30.82;24.24;93817.31;5032894;28;20511;-35
2022/10/25 09:42:52;;;;;;;32.20;16.30;;;;;;;30.92;23.72;93817.63;5033309;28;20508;-34
2022/10/25 09:45:39;;;;;;;16.23;6.28;;;;;;;31.19;23.31;93816.81;5033139;28;20024;-35
2022/10/25 09:48:30;;;;;;;11.80;3.50;;;;;;;31.24;23.32;93812.66;5050951;28;20089;-34
2022/10/25 09:51:19;;;;;;;14.25;3.92;;;;;;;31.59;22.79;93802.75;5050609;28;20031;-35
2022/10/25 09:53:45;;;;;;;18.10;5.38;;;;;;;31.57;23.03;93797.00;5050812;28;20435;-35
2022/10/25 09:56:10;;;;;;;13.80;4.60;;;;;;;31.51;22.73;93802.59;5050679;28;20012;-35
2022/10/25 09:58:46;;;;;;;17.92;6.38;;;;;;;31.55;22.20;93790.50;5032756;28;20535;-34
2022/10/25 10:01:17;;;;;;;19.45;4.85;;;;;;;31.54;22.04;93794.75;5050281;28;20025;-34
2022/10/25 10:03:42;;;;;;;14.10;6.30;;;;;;;31.48;22.47;93786.06;5029338;28;20151;-34
2022/10/25 10:06:25;;;;;;;21.35;4.53;;;;;;;31.52;21.96;93781.19;5030464;28;20080;-35
2022/10/25 10:08:58;;;;;;;10.40;3.90;;;;;;;31.33;22.54;93785.75;5030463;28;20486;-35
2022/10/25 10:11:25;;;;;;;13.13;3.75;;;;;;;31.32;22.34;93792.84;5031910;28;20163;-35
2022/10/25 10:14:11;;;;;;;9.68;4.30;;;;;;;31.04;22.45;93777.22;5050561;28;20055;-34
2022/10/25 10:16:43;;;;;;;17.92;5.68;;;;;;;30.89;22.96;93784.00;5050587;28;20028;-34
2022/10/25 10:19:24;;;;;;;13.13;4.18;;;;;;;30.49;22.96;93783.75;5050537;28;20017;-34
2022/10/25 10:21:56;;;;;;;8.52;3.25;;;;;;;30.21;23.50;93786.56;5050227;28;20439;-34
2022/10/25 10:24:26;;;;;;;19.63;5.03;;;;;;;30.39;23.35;93778.50;5032318;28;20104;-34
2022/10/25 10:26:56;;;;;;;14.60;4.10;;;;;;;30.21;23.36;93768.75;5031179;28;20035;-34
2022/10/25 10:29:23;;;;;;;17.05;3.83;;;;;;;29.83;23.36;93771.28;5040159;28;20075;-34
2022/10/25 10:31:51;;;;;;;18.58;4.60;;;;;;;29.93;23.42;93777.97;5049209;28;20102;-34
2022/10/25 10:34:50;;;;;;;13.32;4.20;;;;;;;29.70;24.38;93778.00;5052280;28;20056;-34
2022/10/25 10:37:18;;;;;;;10.88;3.97;;;;;;;29.60;24.45;93781.31;5049156;28;20453;-34
2022/10/25 10:40:19;;;;;;;18.52;4.72;;;;;;;29.55;24.26;93784.69;5054118;28;20029;-34
2022/10/25 10:42:45;;;;;;;8.65;3.65;;;;;;;29.53;24.02;93776.84;5031752;28;20029;-34
2022/10/25 10:45:11;;;;;;;11.85;4.03;;;;;;;29.62;24.56;93772.09;5049416;28;20029;-34
2022/10/25 10:47:48;;;;;;;18.90;6.45;;;;;;;29.45;24.67;93770.19;5054251;28;20033;-34
2022/10/25 10:50:25;;;;;;;12.10;4.68;;;;;;;29.52;24.82;93772.53;5054078;28;20032;-34
2022/10/25 10:52:59;;;;;;;10.18;4.65;;;;;;;29.60;24.32;93769.94;5053973;28;20017;-34
2022/10/25 10:55:27;;;;;;;14.95;4.57;;;;;;;29.63;24.46;93762.16;5053064;28;20021;-35
2022/10/25 10:57:54;;;;;;;25.33;9.50;;;;;;;29.57;25.11;93765.56;5036330;28;20140;-34
2022/10/25 11:00:21;;;;;;;13.20;4.90;;;;;;;29.62;24.94;93764.31;5033851;28;20061;-35
2022/10/25 11:02:47;;;;;;;15.18;4.00;;;;;;;29.70;24.72;93763.78;5049304;28;20063;-34
2022/10/25 11:05:30;;;;;;;13.25;3.80;;;;;;;30.13;23.70;93760.72;5071240;28;20498;-34
2022/10/25 11:07:59;;;;;;;19.25;4.03;;;;;;;29.70;24.09;93758.09;5068418;28;20037;-34
2022/10/25 11:10:29;;;;;;;13.88;3.60;;;;;;;30.13;23.43;93751.44;5053834;28;20094;-34
2022/10/25 11:13:10;;;;;;;12.75;3.55;;;;;;;30.33;23.24;93746.28;5053853;28;20029;-34
2022/10/25 11:16:08;;;;;;;28.75;4.93;;;;;;;30.47;22.88;93743.81;5035994;28;20093;-34
2022/10/25 11:19:08;;;;;;;13.10;3.90;;;;;;;30.09;23.50;93743.53;5011042;28;20424;-34
2022/10/25 11:22:07;;;;;;;13.48;4.18;;;;;;;30.60;23.02;93740.53;5002590;28;20507;-34
2022/10/25 11:25:04;;;;;;;10.45;3.25;;;;;;;30.90;22.13;93739.84;5053573;28;20017;-35
2022/10/25 11:27:41;;;;;;;16.00;4.22;;;;;;;31.17;21.82;93734.03;5053206;28;20116;-35
2022/10/25 11:30:17;;;;;;;12.98;3.85;;;;;;;31.37;21.55;93713.78;5070816;28;20024;-35
2022/10/25 11:33:16;;;;;;;91.97;8.63;;;;;;;31.60;21.64;93712.81;5055444;28;20035;-35
2022/10/25 11:36:06;;;;;;;13.10;3.38;;;;;;;31.89;21.08;93702.69;5073320;28;20027;-34
2022/10/25 11:38:37;;;;;;;11.80;4.00;;;;;;;32.04;21.20;93701.53;5073013;28;20077;-34
2022/10/25 11:41:12;;;;;;;13.82;4.15;;;;;;;31.68;21.42;93703.72;5072878;28;20025;-34